Unbenanntes Dokument
Flugplatz Bielefeld Platzwetter

 

Aktuelles Platzwetter am Flugplatz Bielefeld EDLI

19.01.18 ,23:34 Uhr

METAR EDLI 192334Z 19002KT 6000 ///006 ///014 M00/M00 Q1009

 

Windwerte

 

Wolkenuntergrenzen

Wind aktuell:170 ° mit 1 kt
Wind 10 min Extrem:
150 ° bis 240 ° mit 1 kt bis 4 kt
Seitenwindkomponente: 1.8 kt
Wolkengrenze 1: 600 ft
Wolkengrenze 2: 1400 ft
Wolkengrenze 3:

Webcam

Temperatur

       

Sichtweite:

6.000 Meter

0.4 °C
Taupunkt: 0.1 °C
Luftfeuchtigkeit: 98 %

Luftdruck:

QNH: 1009 hPa (29.80 in Hg)
QFE: 992 hPa (29.29 in Hg)

Diese Daten werden automatisch ermittelt bzw. übertragen und sind nicht geprüft. Für die Richtigkeit wird daher keine Gewähr übernommen. Sie ersetzen im übrigen nicht die Flugwetterberatung. Alle Zeitangaben beziehen sich auf UTC. Die Seite wird einmal die Minute aktualisiert! Sollten Sie ein ältere Seite haben, so drücken Sie bitte auf den Reload Button Ihres Browsers!